createdAt,value
2023-05-16T00:00:10.929Z,76.4411
2023-05-16T00:01:03.494Z,76.6304
2023-05-16T00:01:52.587Z,79.3713
2023-05-16T00:02:59.659Z,79.1409
2023-05-16T00:04:18.639Z,79.4253
2023-05-16T00:05:19.042Z,78.2454
2023-05-16T00:10:13.844Z,75.6085
2023-05-16T00:17:57.313Z,75.5138
2023-05-16T00:20:22.723Z,75.5548
2023-05-16T00:26:50.441Z,74.6685
2023-05-16T00:31:36.298Z,74.9935
2023-05-16T00:39:48.998Z,74.0826
2023-05-16T00:46:08.671Z,82.9343
2023-05-16T00:46:44.509Z,78.6938
2023-05-16T00:47:42.213Z,77.0016
2023-05-16T00:49:10.617Z,77.2359
2023-05-16T00:49:47.727Z,75.7532
2023-05-16T05:03:34.997Z,75.4303
2023-05-16T05:03:34.997Z,74.7295
2023-05-16T05:03:34.997Z,75.4574
2023-05-16T05:04:36.140Z,81.8448
2023-05-16T05:05:37.521Z,81.8179
2023-05-16T05:06:38.899Z,84.0899
2023-05-16T05:07:40.080Z,83.5509
2023-05-16T05:08:41.253Z,82.3684
2023-05-16T05:09:42.457Z,82.6362
2023-05-16T05:10:43.609Z,85.3861
2023-05-16T05:11:44.707Z,84.0845
2023-05-16T05:12:46.113Z,82.8942
2023-05-16T05:13:47.229Z,83.3602
2023-05-16T05:14:48.412Z,84.8663
2023-05-16T05:15:49.626Z,84.5956
2023-05-16T05:16:50.940Z,82.8858
2023-05-16T05:17:52.163Z,83.6026
2023-05-16T05:18:53.664Z,81.7458
2023-05-16T05:19:54.976Z,82.6987
2023-05-16T05:20:56.167Z,82.1140
2023-05-16T05:21:57.280Z,80.9139
2023-05-16T05:22:58.489Z,80.0617
2023-05-16T05:23:59.634Z,80.2096
2023-05-16T05:25:00.883Z,79.7006
2023-05-16T05:26:02.040Z,79.6232
2023-05-16T05:27:03.309Z,80.0014
2023-05-16T05:28:04.439Z,80.6134
2023-05-16T05:29:06.269Z,79.8180
2023-05-16T05:30:08.572Z,79.7220
2023-05-16T05:31:09.872Z,79.3435
2023-05-16T05:32:11.073Z,79.5490
2023-05-16T05:33:12.261Z,80.3795
2023-05-16T05:34:13.413Z,80.5940
2023-05-16T05:35:14.610Z,81.9821
2023-05-16T05:36:15.820Z,81.6596
2023-05-16T05:37:17.140Z,81.5422
2023-05-16T05:38:18.340Z,82.5417
2023-05-16T05:39:19.477Z,81.9684
2023-05-16T05:40:20.667Z,80.3169
2023-05-16T05:41:21.966Z,80.1352
2023-05-16T05:42:23.049Z,80.9728
2023-05-16T05:43:24.243Z,82.7153
2023-05-16T05:44:25.406Z,81.5403
2023-05-16T05:45:27.106Z,81.3048
2023-05-16T05:46:28.578Z,82.4420
2023-05-16T05:47:29.671Z,81.5994
2023-05-16T05:48:30.857Z,83.3390
2023-05-16T05:49:32.071Z,83.2688
2023-05-16T05:50:33.259Z,81.7523
2023-05-16T05:51:34.485Z,82.2683
2023-05-16T05:52:35.649Z,82.3302
2023-05-16T05:53:36.845Z,82.9599
2023-05-16T05:54:38.043Z,81.7550
2023-05-16T05:55:39.232Z,81.2197
2023-05-16T05:56:40.502Z,82.0335
2023-05-16T05:57:41.639Z,82.2296
2023-05-16T05:58:42.850Z,80.6525
2023-05-16T05:59:43.990Z,81.6604
2023-05-16T06:00:45.147Z,81.0414
2023-05-16T06:01:46.368Z,80.2479
2023-05-16T06:02:47.748Z,80.2151
2023-05-16T06:03:48.939Z,80.9045
2023-05-16T06:04:50.119Z,82.7892
2023-05-16T06:05:51.331Z,82.8389
2023-05-16T06:06:52.518Z,82.4559
2023-05-16T06:07:53.675Z,82.8105
2023-05-16T06:08:54.918Z,81.6144
2023-05-16T06:09:56.105Z,79.8542
2023-05-16T06:10:57.258Z,79.5726
2023-05-16T06:11:58.546Z,81.9165
2023-05-16T06:12:59.682Z,82.3330
2023-05-16T06:14:00.886Z,81.5311
2023-05-16T06:15:02.038Z,83.6748
2023-05-16T06:16:03.250Z,83.8020
2023-05-16T06:17:04.455Z,83.8795
2023-05-16T06:18:05.686Z,82.9509
2023-05-16T06:19:06.838Z,83.1146
2023-05-16T06:20:08.004Z,83.3778
2023-05-16T06:21:09.179Z,82.2087
2023-05-16T06:22:10.339Z,81.7709
2023-05-16T06:23:11.482Z,81.3498
2023-05-16T06:24:12.672Z,82.5174
2023-05-16T06:25:13.827Z,80.6151
2023-05-16T06:26:15.040Z,81.9629
2023-05-16T06:27:16.390Z,83.2386
2023-05-16T06:28:18.356Z,80.5167
2023-05-16T06:29:19.555Z,79.8384
2023-05-16T06:30:20.757Z,79.6870
2023-05-16T06:31:22.692Z,80.3353
2023-05-16T06:32:23.950Z,83.6389
2023-05-16T06:33:26.078Z,80.8284
2023-05-16T06:34:27.251Z,79.4854
2023-05-16T06:35:29.845Z,79.1439
2023-05-16T06:36:32.161Z,78.9684
2023-05-16T06:37:33.296Z,80.3940
2023-05-16T06:38:34.532Z,81.8916
2023-05-16T06:39:35.684Z,83.8027
2023-05-16T06:40:36.924Z,82.7319
2023-05-16T06:41:38.164Z,83.1404
2023-05-16T06:42:39.394Z,81.7216
2023-05-16T06:43:40.555Z,81.0012
2023-05-16T06:44:41.749Z,83.4118
2023-05-16T06:45:42.923Z,82.6051
2023-05-16T06:46:44.248Z,80.8254
2023-05-16T06:47:45.456Z,81.4450
2023-05-16T06:48:46.704Z,81.4488
2023-05-16T06:49:47.888Z,82.6184
2023-05-16T06:50:49.257Z,81.5900
2023-05-16T06:51:50.397Z,82.4676
2023-05-16T06:52:51.859Z,80.4118
2023-05-16T06:53:53.284Z,80.5228
2023-05-16T06:54:55.622Z,79.7016
2023-05-16T06:55:56.922Z,80.2712
2023-05-16T06:56:58.353Z,80.5893
2023-05-16T06:57:59.616Z,80.7217
2023-05-16T06:59:01.141Z,80.6505
2023-05-16T07:00:02.442Z,79.9555
2023-05-16T07:01:03.788Z,79.8760
2023-05-16T07:02:06.125Z,81.3748
2023-05-16T07:03:07.492Z,83.4253
2023-05-16T07:04:09.065Z,82.8239
2023-05-16T07:05:11.432Z,82.0248
2023-05-16T07:06:12.738Z,80.4804
2023-05-16T07:07:14.022Z,82.0653
2023-05-16T07:08:15.220Z,82.8998
2023-05-16T07:09:16.371Z,80.8420
2023-05-16T07:10:17.750Z,79.9774
2023-05-16T07:11:19.034Z,79.2875
2023-05-16T07:12:20.228Z,79.4761
2023-05-16T07:13:21.415Z,79.0601
2023-05-16T07:14:22.659Z,81.5795
2023-05-16T07:15:23.878Z,81.7700
2023-05-16T07:16:25.176Z,80.1247
2023-05-16T07:17:26.364Z,80.3715
2023-05-16T07:18:27.633Z,80.4658
2023-05-16T07:19:28.936Z,81.6793
2023-05-16T07:20:30.190Z,81.1243
2023-05-16T07:21:31.425Z,80.7513
2023-05-16T07:22:32.775Z,80.3861
2023-05-16T07:23:34.403Z,82.4902
2023-05-16T07:24:35.628Z,82.8761
2023-05-16T07:25:36.895Z,83.4412
2023-05-16T07:26:38.091Z,83.3720
2023-05-16T07:27:39.327Z,81.9008
2023-05-16T07:28:40.513Z,82.9299
2023-05-16T07:29:41.794Z,80.1255
2023-05-16T07:30:43.080Z,80.5340
2023-05-16T07:31:44.372Z,80.6091
2023-05-16T07:32:45.786Z,80.1833
2023-05-16T07:33:47.160Z,80.2426
2023-05-16T07:34:49.458Z,83.3770
2023-05-16T07:35:51.460Z,83.6957
2023-05-16T07:36:51.436Z,82.3974
2023-05-16T07:37:52.808Z,81.4408
2023-05-16T07:38:54.100Z,80.9758
2023-05-16T07:39:55.281Z,80.6608
2023-05-16T07:40:56.450Z,81.3555
2023-05-16T07:41:57.913Z,80.4445
2023-05-16T07:42:59.310Z,79.4926
2023-05-16T07:44:01.824Z,80.5810
2023-05-16T07:45:03.081Z,79.5621
2023-05-16T07:46:05.512Z,80.4207
2023-05-16T07:47:06.781Z,82.5169
2023-05-16T07:48:08.208Z,83.2624
2023-05-16T07:49:09.392Z,82.6985
2023-05-16T07:50:10.673Z,80.7889
2023-05-16T07:51:11.880Z,81.8585
2023-05-16T07:52:13.120Z,82.5316
2023-05-16T07:53:14.317Z,81.3475
2023-05-16T07:54:15.595Z,81.3142
2023-05-16T07:55:16.817Z,81.2764
2023-05-16T07:56:18.220Z,81.2147
2023-05-16T07:57:19.375Z,82.1471
2023-05-16T07:58:20.512Z,82.1111
2023-05-16T07:59:21.782Z,81.6567
2023-05-16T08:00:23.024Z,80.6465
2023-05-16T08:01:24.150Z,82.2022
2023-05-16T08:02:25.532Z,82.8734
2023-05-16T08:03:26.884Z,82.7137
2023-05-16T08:04:29.351Z,81.8289
2023-05-16T08:05:30.956Z,81.6605
2023-05-16T08:06:32.598Z,82.4971
2023-05-16T08:07:33.843Z,82.1152
2023-05-16T08:08:35.013Z,82.7223
2023-05-16T08:09:36.211Z,82.5521
2023-05-16T08:10:37.495Z,82.7673
2023-05-16T08:11:39.032Z,81.5537
2023-05-16T08:12:40.370Z,81.8549
2023-05-16T08:13:41.886Z,80.5349
2023-05-16T08:14:43.024Z,79.6692
2023-05-16T08:15:44.424Z,80.5916
2023-05-16T08:16:45.737Z,82.1852
2023-05-16T08:17:47.109Z,80.6631
2023-05-16T08:18:48.342Z,80.5018
2023-05-16T08:19:49.467Z,79.4077
2023-05-16T08:20:50.667Z,80.3607
2023-05-16T08:21:51.834Z,79.1919
2023-05-16T08:22:53.155Z,79.8326
2023-05-16T08:23:54.329Z,80.5839
2023-05-16T08:24:55.525Z,80.0186
2023-05-16T08:25:56.664Z,79.3230
2023-05-16T08:29:09.573Z,77.8985
2023-05-16T08:32:37.356Z,79.4720
2023-05-16T08:32:37.356Z,77.4848
2023-05-16T08:32:37.356Z,79.4492
2023-05-16T08:33:38.924Z,77.8241
2023-05-16T08:34:40.017Z,78.0312
2023-05-16T08:35:41.252Z,78.1793
2023-05-16T08:36:42.548Z,77.7640
2023-05-16T08:37:43.823Z,79.8526
2023-05-16T08:38:45.071Z,79.7815
2023-05-16T08:39:46.323Z,79.7715
2023-05-16T08:40:47.472Z,79.6391
2023-05-16T08:41:48.702Z,79.9212
2023-05-16T08:42:49.863Z,78.5688
2023-05-16T08:43:51.142Z,77.3533
2023-05-16T08:44:52.328Z,78.7618
2023-05-16T08:45:53.797Z,78.3009
2023-05-16T08:46:56.280Z,78.7111
2023-05-16T08:47:57.535Z,77.8243
2023-05-16T08:48:58.760Z,77.5718
2023-05-16T08:50:00.058Z,76.4119
2023-05-16T08:51:01.260Z,76.2442
2023-05-16T08:52:02.699Z,78.5217
2023-05-16T08:53:03.946Z,77.3219
2023-05-16T08:54:05.207Z,79.4566
2023-05-16T08:55:11.059Z,79.3394
2023-05-16T08:56:06.995Z,79.3202
2023-05-16T08:57:08.212Z,78.3660
2023-05-16T08:58:09.387Z,79.5952
2023-05-16T08:59:10.644Z,79.7888
2023-05-16T09:00:12.089Z,79.7765
2023-05-16T09:01:13.658Z,78.8226
2023-05-16T09:02:14.859Z,78.2945
2023-05-16T09:03:16.166Z,79.4441
2023-05-16T09:04:17.318Z,78.6030
2023-05-16T09:05:18.478Z,79.6200
2023-05-16T09:06:19.715Z,79.7281
2023-05-16T09:07:20.849Z,78.4070
2023-05-16T09:08:22.153Z,80.0269
2023-05-16T09:09:23.427Z,77.9852
2023-05-16T09:10:24.590Z,80.2438
2023-05-16T09:11:25.893Z,80.1222
2023-05-16T09:12:27.135Z,79.1266
2023-05-16T09:13:28.294Z,80.0544
2023-05-16T09:14:29.519Z,79.0347
2023-05-16T09:15:30.667Z,77.8255
2023-05-16T09:16:31.976Z,77.6268
2023-05-16T09:17:39.554Z,78.5922
2023-05-16T09:18:33.781Z,79.7570
2023-05-16T09:21:42.987Z,77.5800
2023-05-16T09:21:42.987Z,79.3589
2023-05-16T09:23:57.258Z,78.3047
2023-05-16T09:23:57.258Z,77.4125
2023-05-16T09:24:59.408Z,76.7956
2023-05-16T09:26:00.716Z,77.1190
2023-05-16T09:27:01.945Z,78.0150
2023-05-16T09:28:03.741Z,78.4126
2023-05-16T09:29:05.043Z,80.0571
2023-05-16T09:30:07.205Z,78.8256
2023-05-16T09:31:08.561Z,75.9448
2023-05-16T09:32:09.762Z,76.3927
2023-05-16T09:33:10.891Z,78.2684
2023-05-16T09:34:12.102Z,76.0984
2023-05-16T09:35:13.326Z,77.1761
2023-05-16T09:36:14.527Z,76.7217
2023-05-16T09:37:15.693Z,76.2268
2023-05-16T09:38:17.055Z,77.8366
2023-05-16T09:39:18.410Z,77.3908
2023-05-16T09:40:19.652Z,78.4720
2023-05-16T09:41:20.812Z,77.7660
2023-05-16T09:42:22.142Z,76.3996
2023-05-16T09:43:23.368Z,76.6596
2023-05-16T09:44:24.631Z,76.5554
2023-05-16T09:45:25.999Z,76.5746
2023-05-16T09:46:27.332Z,76.6269
2023-05-16T09:47:28.645Z,76.5352
2023-05-16T09:48:29.845Z,77.5086
2023-05-16T09:49:31.003Z,78.8882
2023-05-16T09:50:32.254Z,76.7333
2023-05-16T09:51:33.405Z,77.2251
2023-05-16T09:52:34.598Z,76.6216
2023-05-16T09:53:35.755Z,78.2225
2023-05-16T09:54:37.057Z,78.7422
2023-05-16T09:55:38.217Z,80.4966
2023-05-16T09:56:39.707Z,79.0494
2023-05-16T09:57:40.837Z,79.0742
2023-05-16T09:58:42.326Z,83.5011
2023-05-16T09:59:43.519Z,81.8032
2023-05-16T10:00:44.812Z,83.2815
2023-05-16T10:01:46.045Z,81.7391
2023-05-16T10:02:47.423Z,82.6921
2023-05-16T10:03:48.745Z,84.9392
2023-05-16T10:04:50.030Z,82.5661
2023-05-16T10:05:51.153Z,84.6069
2023-05-16T10:06:52.557Z,85.0923
2023-05-16T10:07:53.689Z,86.4426
2023-05-16T10:08:55.738Z,85.6571
2023-05-16T10:09:57.071Z,85.4708
2023-05-16T10:10:58.324Z,86.8038
2023-05-16T10:11:59.493Z,86.6189
2023-05-16T10:13:00.657Z,84.5754
2023-05-16T10:14:02.008Z,82.8519
2023-05-16T10:15:03.306Z,82.4511
2023-05-16T10:16:04.769Z,81.7411
2023-05-16T10:17:07.026Z,81.7245
2023-05-16T10:18:08.449Z,86.1318
2023-05-16T10:19:10.726Z,87.2103
2023-05-16T10:20:11.961Z,87.0136
2023-05-16T10:21:13.151Z,87.5091
2023-05-16T10:22:14.358Z,87.5585
2023-05-16T10:23:15.886Z,85.6654
2023-05-16T10:24:17.093Z,83.0271
2023-05-16T10:25:18.321Z,82.8647
2023-05-16T10:26:19.673Z,85.9847
2023-05-16T10:27:20.859Z,86.9331
2023-05-16T10:28:22.110Z,84.2590
2023-05-16T10:29:23.344Z,83.3106
2023-05-16T10:30:24.583Z,86.5875
2023-05-16T10:31:25.821Z,86.0239
2023-05-16T10:32:27.044Z,83.0895
2023-05-16T10:33:28.324Z,82.7554
2023-05-16T10:34:29.550Z,82.6002
2023-05-16T10:35:30.783Z,83.3653
2023-05-16T10:36:31.929Z,82.7250
2023-05-16T10:37:33.150Z,80.5495
2023-05-16T10:38:34.359Z,84.2945
2023-05-16T10:39:35.527Z,83.9317
2023-05-16T10:40:36.686Z,83.1579
2023-05-16T10:41:38.052Z,82.7591
2023-05-16T10:42:40.180Z,81.6331
2023-05-16T10:43:43.854Z,82.6467
2023-05-16T10:44:51.512Z,80.7671
2023-05-16T10:45:43.046Z,79.3899
2023-05-16T10:46:45.794Z,79.4914
2023-05-16T10:47:47.056Z,81.1423
2023-05-16T10:48:50.380Z,83.2571
2023-05-16T10:49:49.249Z,85.4415
2023-05-16T10:50:50.435Z,82.4053
2023-05-16T10:51:51.652Z,81.4966
2023-05-16T10:52:52.820Z,80.7730
2023-05-16T10:53:54.043Z,80.5892
2023-05-16T10:54:55.163Z,79.8463
2023-05-16T10:55:56.445Z,81.5602
2023-05-16T10:56:57.564Z,83.8873
2023-05-16T10:57:58.703Z,84.4410
2023-05-16T10:58:59.922Z,85.9367
2023-05-16T11:00:01.138Z,87.3345
2023-05-16T11:01:02.382Z,86.9818
2023-05-16T11:02:03.536Z,87.7630
2023-05-16T11:03:05.666Z,87.6377
2023-05-16T11:04:06.986Z,88.2294
2023-05-16T11:05:08.103Z,88.8922
2023-05-16T11:06:09.654Z,88.8685
2023-05-16T11:07:10.857Z,88.1576
2023-05-16T11:08:12.021Z,88.3551
2023-05-16T11:09:13.200Z,89.0524
2023-05-16T11:10:14.465Z,88.8912
2023-05-16T11:11:15.620Z,86.5897
2023-05-16T11:12:16.767Z,85.6850
2023-05-16T11:13:17.999Z,83.8384
2023-05-16T11:14:19.112Z,83.3620
2023-05-16T11:15:20.290Z,82.9360
2023-05-16T11:16:21.656Z,84.5893
2023-05-16T11:17:23.468Z,83.6734
2023-05-16T11:18:24.788Z,84.6837
2023-05-16T11:19:27.121Z,85.9597
2023-05-16T11:20:28.271Z,86.1691
2023-05-16T11:21:29.458Z,86.8597
2023-05-16T11:22:30.580Z,86.1567
2023-05-16T11:23:31.782Z,86.3499
2023-05-16T11:24:32.962Z,87.5589
2023-05-16T11:25:34.167Z,87.4731
2023-05-16T11:26:35.341Z,87.1040
2023-05-16T11:27:37.652Z,86.9641
2023-05-16T11:28:38.804Z,87.1035
2023-05-16T11:29:39.994Z,87.3431
2023-05-16T11:30:41.173Z,88.9693
2023-05-16T11:31:42.437Z,88.4726
2023-05-16T11:32:43.589Z,89.1229
2023-05-16T11:33:44.765Z,87.4851
2023-05-16T11:34:45.924Z,87.5141
2023-05-16T11:35:47.137Z,89.3561
2023-05-16T11:36:48.290Z,89.2570
2023-05-16T11:37:49.471Z,89.0411
2023-05-16T11:38:50.697Z,88.2453
2023-05-16T11:39:51.946Z,89.6019
2023-05-16T11:40:53.072Z,88.6419
2023-05-16T11:41:54.278Z,88.3140
2023-05-16T11:42:55.521Z,87.1941
2023-05-16T11:43:56.669Z,87.9940
2023-05-16T11:44:57.882Z,87.8145
2023-05-16T11:45:59.103Z,86.8462
2023-05-16T11:47:00.465Z,86.5414
2023-05-16T11:48:01.691Z,89.1085
2023-05-16T11:49:02.880Z,90.1324
2023-05-16T11:50:04.009Z,88.6092
2023-05-16T11:51:05.248Z,88.6145
2023-05-16T11:52:06.401Z,90.1519
2023-05-16T11:53:07.584Z,90.1567
2023-05-16T11:54:08.715Z,89.4820
2023-05-16T11:55:09.970Z,87.8226
2023-05-16T11:56:11.098Z,87.5986
2023-05-16T11:57:12.292Z,87.3177
2023-05-16T11:58:13.813Z,86.6137
2023-05-16T11:59:15.913Z,86.4211
2023-05-16T12:00:17.040Z,86.2437
2023-05-16T12:01:18.244Z,86.2732
2023-05-16T12:02:19.418Z,87.1419
2023-05-16T12:03:20.676Z,86.2798
2023-05-16T12:04:21.899Z,86.4996
2023-05-16T12:05:23.181Z,89.1493
2023-05-16T12:06:24.291Z,88.0023
2023-05-16T12:07:26.129Z,88.6401
2023-05-16T12:08:27.261Z,88.7866
2023-05-16T12:09:28.483Z,87.1013
2023-05-16T12:10:29.828Z,88.7176
2023-05-16T12:11:31.132Z,87.4792
2023-05-16T12:12:32.317Z,85.4903
2023-05-16T12:13:33.522Z,86.5087
2023-05-16T12:14:34.673Z,85.3000
2023-05-16T12:15:35.847Z,84.2513
2023-05-16T12:16:37.118Z,83.8448
2023-05-16T12:17:38.429Z,83.2568
2023-05-16T12:18:41.928Z,83.3393
2023-05-16T12:19:41.209Z,84.7790
2023-05-16T12:20:42.344Z,83.7277
2023-05-16T12:21:43.560Z,83.3388
2023-05-16T12:22:44.719Z,84.4078
2023-05-16T12:23:45.897Z,83.9950
2023-05-16T12:24:47.076Z,83.6962
2023-05-16T12:25:48.282Z,87.2636
2023-05-16T12:26:49.451Z,85.0738
2023-05-16T12:27:50.647Z,84.9370
2023-05-16T12:28:51.847Z,88.6845
2023-05-16T12:29:53.007Z,89.1717
2023-05-16T12:30:54.119Z,87.2165
2023-05-16T12:31:55.395Z,83.7862
2023-05-16T12:32:56.537Z,84.2023
2023-05-16T12:33:57.741Z,85.7018
2023-05-16T12:34:58.891Z,82.9658
2023-05-16T12:36:00.099Z,81.3572
2023-05-16T12:37:01.215Z,85.1088
2023-05-16T12:38:02.408Z,85.2626
2023-05-16T12:39:03.588Z,85.9820
2023-05-16T12:40:04.783Z,84.7913
2023-05-16T12:41:05.950Z,84.3478
2023-05-16T12:42:07.131Z,86.9522
2023-05-16T12:43:08.271Z,86.0702
2023-05-16T12:44:09.527Z,86.4438
2023-05-16T12:45:10.644Z,88.4826
2023-05-16T12:46:11.921Z,85.2183
2023-05-16T12:47:13.479Z,83.9966
2023-05-16T12:48:14.699Z,83.1913
2023-05-16T12:49:16.102Z,84.9473
2023-05-16T12:50:18.261Z,84.5490
2023-05-16T12:51:19.435Z,87.8645
2023-05-16T12:52:20.583Z,87.1663
2023-05-16T12:53:21.914Z,85.4298
2023-05-16T12:54:23.453Z,87.4712
2023-05-16T12:55:25.534Z,87.0757
2023-05-16T12:56:26.667Z,84.2474
2023-05-16T12:57:27.880Z,84.8409
2023-05-16T12:58:29.153Z,84.1949
2023-05-16T12:59:30.297Z,87.5960
2023-05-16T13:00:31.402Z,87.7747
2023-05-16T13:01:32.628Z,88.0806
2023-05-16T13:02:33.756Z,83.6933
2023-05-16T13:03:36.327Z,84.0828
2023-05-16T13:04:37.562Z,83.3403
2023-05-16T13:05:39.259Z,83.3148
2023-05-16T13:06:57.492Z,86.5844
2023-05-16T13:07:40.959Z,85.7584
2023-05-16T13:08:42.194Z,88.1901
2023-05-16T13:09:43.437Z,86.3292
2023-05-16T13:10:44.633Z,84.7250
2023-05-16T13:11:45.816Z,86.5049
2023-05-16T13:12:47.129Z,84.8647
2023-05-16T13:13:48.582Z,84.7476
2023-05-16T13:14:49.889Z,83.4397
2023-05-16T13:15:52.009Z,82.2890
2023-05-16T13:16:53.266Z,82.9435
2023-05-16T13:17:54.641Z,86.0512
2023-05-16T13:18:55.856Z,85.8128
2023-05-16T13:19:57.046Z,87.8091
2023-05-16T13:20:58.205Z,83.7768
2023-05-16T13:21:59.417Z,84.6716
2023-05-16T13:23:00.571Z,83.6472
2023-05-16T13:24:01.768Z,82.4491
2023-05-16T13:25:02.859Z,82.7493
2023-05-16T13:26:04.137Z,80.9281
2023-05-16T13:27:05.285Z,85.0746
2023-05-16T13:28:06.457Z,82.4816
2023-05-16T13:29:07.740Z,83.2765
2023-05-16T13:30:09.097Z,84.1929
2023-05-16T13:31:10.420Z,82.2957
2023-05-16T13:32:11.665Z,85.6513
2023-05-16T13:33:12.885Z,86.3107
2023-05-16T13:34:14.055Z,82.3252
2023-05-16T13:35:15.260Z,82.3637
2023-05-16T13:36:16.450Z,83.7689
2023-05-16T13:37:17.648Z,84.6544
2023-05-16T13:38:18.865Z,84.5092
2023-05-16T13:39:20.058Z,82.0732
2023-05-16T13:40:21.189Z,83.7331
2023-05-16T13:41:22.324Z,81.8507
2023-05-16T13:42:24.574Z,85.1301
2023-05-16T13:43:25.758Z,83.5737
2023-05-16T13:44:26.902Z,82.1402
2023-05-16T13:45:28.374Z,80.7821
2023-05-16T13:46:29.768Z,82.9508
2023-05-16T13:47:31.023Z,80.3741
2023-05-16T13:49:36.570Z,82.1957
2023-05-16T13:49:36.570Z,80.1314
2023-05-16T13:50:34.505Z,79.8695
2023-05-16T13:51:35.653Z,79.8955
2023-05-16T13:52:37.998Z,82.2157
2023-05-16T13:53:39.526Z,80.6015
2023-05-16T13:54:40.775Z,82.7164
2023-05-16T13:55:42.041Z,80.9944
2023-05-16T13:56:44.486Z,82.2909
2023-05-16T13:57:45.689Z,83.4822
2023-05-16T13:59:00.803Z,83.4103
2023-05-16T14:00:11.553Z,84.4962
2023-05-16T14:00:49.060Z,81.2657
2023-05-16T14:01:51.604Z,83.8462
2023-05-16T14:02:52.809Z,84.6827
2023-05-16T14:03:54.064Z,83.6916
2023-05-16T14:04:55.285Z,84.1946
2023-05-16T14:06:58.961Z,83.4739
2023-05-16T14:06:58.961Z,83.3517
2023-05-16T14:08:00.117Z,85.6718
2023-05-16T14:09:02.818Z,84.9761
2023-05-16T14:10:03.950Z,84.6587
2023-05-16T14:11:05.198Z,83.8078
2023-05-16T14:12:07.476Z,84.4812
2023-05-16T14:13:08.592Z,85.6721
2023-05-16T14:14:09.737Z,84.4751
2023-05-16T14:15:11.078Z,84.6604
2023-05-16T14:16:12.340Z,86.3968
2023-05-16T14:17:13.777Z,86.9814
2023-05-16T14:18:14.960Z,86.4309
2023-05-16T14:19:18.916Z,86.6528
2023-05-16T14:20:18.320Z,85.3479
2023-05-16T14:21:19.550Z,84.8986
2023-05-16T14:22:20.733Z,85.4470
2023-05-16T14:23:21.968Z,86.2573
2023-05-16T14:24:23.179Z,84.0521
2023-05-16T14:25:24.367Z,82.6844
2023-05-16T14:26:25.632Z,84.8913
2023-05-16T14:27:26.839Z,82.5802
2023-05-16T14:29:28.251Z,82.7059
2023-05-16T14:29:28.251Z,82.5020
2023-05-16T14:30:29.675Z,84.3285
2023-05-16T14:31:31.072Z,81.4454
2023-05-16T14:32:32.201Z,82.0930
2023-05-16T14:33:33.416Z,80.7067
2023-05-16T14:34:34.668Z,82.3355
2023-05-16T14:35:35.977Z,83.9629
2023-05-16T14:36:37.359Z,82.7115
2023-05-16T14:37:38.627Z,83.1752
2023-05-16T14:38:39.941Z,83.8752
2023-05-16T14:39:41.091Z,81.1394
2023-05-16T14:40:42.236Z,81.7721
2023-05-16T14:41:43.487Z,83.7978
2023-05-16T14:42:44.643Z,83.4885
2023-05-16T14:43:45.803Z,82.4658
2023-05-16T14:44:47.214Z,81.8914
2023-05-16T14:45:48.359Z,84.0687
2023-05-16T14:46:49.623Z,83.9557
2023-05-16T14:47:50.732Z,83.8236
2023-05-16T14:48:51.977Z,82.8682
2023-05-16T14:49:53.142Z,82.4008
2023-05-16T14:50:54.363Z,83.3093
2023-05-16T14:51:55.526Z,82.1047
2023-05-16T14:52:56.750Z,82.8546
2023-05-16T14:53:57.916Z,84.3893
2023-05-16T14:54:59.073Z,82.6614
2023-05-16T14:56:00.389Z,81.7449
2023-05-16T14:57:01.547Z,82.3217
2023-05-16T14:58:02.746Z,84.7913
2023-05-16T14:59:03.956Z,82.2601
2023-05-16T15:00:05.171Z,81.4535
2023-05-16T15:01:06.413Z,82.2518
2023-05-16T15:02:07.706Z,83.8287
2023-05-16T15:03:08.945Z,82.2741
2023-05-16T15:04:10.098Z,84.1777
2023-05-16T15:05:11.303Z,83.4577
2023-05-16T15:06:12.453Z,83.9096
2023-05-16T15:07:13.607Z,81.4921
2023-05-16T15:08:14.774Z,81.3322
2023-05-16T15:09:15.966Z,84.1730
2023-05-16T15:10:17.185Z,83.8636
2023-05-16T15:11:18.346Z,84.6996
2023-05-16T15:12:19.587Z,81.5616
2023-05-16T15:13:20.712Z,82.8585
2023-05-16T15:14:21.946Z,84.5228
2023-05-16T15:15:23.082Z,82.1682
2023-05-16T15:16:24.302Z,84.1497
2023-05-16T15:17:25.530Z,83.2915
2023-05-16T15:18:26.692Z,85.5142
2023-05-16T15:19:28.378Z,85.7940
2023-05-16T15:20:29.946Z,81.7804
2023-05-16T15:21:31.295Z,82.5062
2023-05-16T15:22:32.469Z,82.3200
2023-05-16T15:23:54.712Z,82.8316
2023-05-16T15:24:37.025Z,81.1364
2023-05-16T15:25:39.110Z,81.8854
2023-05-16T15:26:40.274Z,82.5836
2023-05-16T15:27:41.445Z,82.5978
2023-05-16T15:28:42.759Z,82.6105
2023-05-16T15:29:43.820Z,84.2748
2023-05-16T15:30:45.822Z,84.1297
2023-05-16T15:31:47.637Z,83.7805
2023-05-16T15:32:48.850Z,82.7237
2023-05-16T15:33:49.951Z,83.8472
2023-05-16T15:34:51.108Z,85.1546
2023-05-16T15:37:01.828Z,82.0551
2023-05-16T15:37:53.117Z,82.8038
2023-05-16T15:38:54.324Z,81.2232
2023-05-16T15:39:55.460Z,80.5392
2023-05-16T15:41:09.737Z,83.2007
2023-05-16T15:43:01.612Z,81.3856
2023-05-16T15:44:02.729Z,81.7567
2023-05-16T15:45:03.938Z,83.1467
2023-05-16T15:46:05.157Z,81.6395
2023-05-16T15:47:06.313Z,81.2043
2023-05-16T15:48:07.592Z,80.4386
2023-05-16T15:49:08.979Z,80.7737
2023-05-16T15:50:10.163Z,82.2722
2023-05-16T15:51:11.366Z,82.6332
2023-05-16T15:52:12.545Z,82.1274
2023-05-16T15:53:13.719Z,84.0013
2023-05-16T15:54:14.862Z,84.6468
2023-05-16T15:55:16.100Z,84.5622
2023-05-16T15:56:17.274Z,82.9513
2023-05-16T15:57:18.452Z,82.2191
2023-05-16T15:58:22.556Z,82.9215
2023-05-16T15:59:20.643Z,83.7233
2023-05-16T16:00:21.814Z,83.6757
2023-05-16T16:01:23.056Z,85.0565
2023-05-16T16:02:24.181Z,84.2920
2023-05-16T16:03:25.467Z,84.4984
2023-05-16T16:04:26.570Z,83.7103
2023-05-16T16:05:28.126Z,83.7577
2023-05-16T16:06:29.478Z,82.7371
2023-05-16T16:07:30.714Z,82.8053
2023-05-16T16:08:31.898Z,83.7012
2023-05-16T16:09:33.250Z,83.2266
2023-05-16T16:10:34.394Z,83.8515
2023-05-16T16:11:35.572Z,81.7176
2023-05-16T16:12:36.736Z,81.8179
2023-05-16T16:13:37.900Z,83.1468
2023-05-16T16:14:39.169Z,83.8638
2023-05-16T16:15:40.373Z,82.1259
2023-05-16T16:16:42.377Z,82.1399
2023-05-16T16:17:43.603Z,83.2781
2023-05-16T16:18:44.905Z,82.7102
2023-05-16T16:19:46.099Z,82.8945
2023-05-16T16:20:47.295Z,81.2093
2023-05-16T16:21:48.465Z,82.7671
2023-05-16T16:22:49.751Z,81.5730
2023-05-16T16:23:50.949Z,80.9186
2023-05-16T16:24:53.597Z,82.9027
2023-05-16T16:25:52.445Z,82.8158
2023-05-16T16:26:53.715Z,83.0945
2023-05-16T16:27:54.995Z,80.9755
2023-05-16T16:28:56.215Z,80.8665
2023-05-16T16:29:57.484Z,81.2367
2023-05-16T16:30:58.673Z,79.6857
2023-05-16T16:31:59.969Z,81.8742
2023-05-16T16:33:01.865Z,81.9584
2023-05-16T16:34:03.430Z,82.2749
2023-05-16T16:35:06.386Z,82.3447
2023-05-16T16:36:05.037Z,83.3369
2023-05-16T16:37:06.385Z,82.2147
2023-05-16T16:38:07.952Z,81.4690
2023-05-16T16:39:09.294Z,82.0753
2023-05-16T16:40:11.550Z,82.3835
2023-05-16T16:41:12.724Z,82.1992
2023-05-16T16:42:14.112Z,82.8051
2023-05-16T16:43:15.650Z,82.0818
2023-05-16T16:44:18.001Z,81.4237
2023-05-16T16:45:20.852Z,82.0119
2023-05-16T16:46:20.772Z,82.0709
2023-05-16T16:47:21.955Z,82.5834
2023-05-16T16:48:23.220Z,82.6537
2023-05-16T16:49:25.384Z,81.7527
2023-05-16T16:50:26.608Z,82.4168
2023-05-16T16:51:27.791Z,82.6680
2023-05-16T16:52:28.918Z,82.8948
2023-05-16T16:53:30.216Z,83.1016
2023-05-16T16:54:31.465Z,82.2896
2023-05-16T16:55:32.631Z,79.8248
2023-05-16T16:56:33.818Z,80.1256
2023-05-16T16:57:35.175Z,81.1604
2023-05-16T16:58:36.492Z,82.8066
2023-05-16T16:59:37.677Z,82.4626
2023-05-16T17:00:39.001Z,82.2059
2023-05-16T17:01:40.179Z,81.9773
2023-05-16T17:02:41.557Z,81.7480
2023-05-16T17:03:42.831Z,80.6667
2023-05-16T17:04:44.925Z,81.3849
2023-05-16T17:05:47.885Z,80.7316
2023-05-16T17:06:49.611Z,80.5826
2023-05-16T17:07:57.741Z,80.9163
2023-05-16T17:08:52.822Z,80.7150
2023-05-16T17:09:53.972Z,80.6224
2023-05-16T17:10:55.212Z,81.9793